Time;durP1;ratioP1;P1;durP2;ratioP2;P2;SDS_P1;SDS_P2;PMS_P1;PMS_P2;Temp;Humidity;BMP_temperature;BMP_pressure;BME280_temperature;BME280_humidity;BME280_pressure;Samples;Min_cycle;Max_cycle;Signal;HPM_P1;HPM_P2
2022/12/23 00:00:17;;;;;;;7.00;2.20;;;11.80;99.90;;;;;;5011643;28;20473;-65
2022/12/23 00:02:43;;;;;;;2.80;1.50;;;11.80;99.90;;;;;;5012862;28;20425;-65
2022/12/23 00:05:09;;;;;;;3.23;1.50;;;11.80;99.90;;;;;;5005759;28;20451;-66
2022/12/23 00:07:34;;;;;;;2.10;1.50;;;11.80;99.90;;;;;;5008277;28;20192;-65
2022/12/23 00:10:00;;;;;;;2.70;1.30;;;11.60;99.90;;;;;;5005397;28;20801;-65
2022/12/23 00:15:10;;;;;;;2.90;1.40;;;11.60;99.90;;;;;;5009379;28;20232;-65
2022/12/23 00:17:42;;;;;;;4.33;1.40;;;11.60;99.90;;;;;;5011054;28;20466;-66
2022/12/23 00:20:10;;;;;;;2.80;1.77;;;11.60;99.90;;;;;;5008488;28;20435;-66
2022/12/23 00:25:38;;;;;;;3.40;1.60;;;11.70;99.90;;;;;;5011369;28;21944;-65
2022/12/23 00:28:18;;;;;;;3.50;1.40;;;11.70;99.90;;;;;;5007688;28;20461;-65
2022/12/23 00:30:53;;;;;;;5.83;1.50;;;11.80;99.90;;;;;;5009627;28;20446;-66
2022/12/23 00:33:22;;;;;;;1.87;1.27;;;11.90;99.90;;;;;;5012460;28;20435;-66
2022/12/23 00:35:48;;;;;;;5.53;1.50;;;11.90;99.90;;;;;;5013638;28;20482;-64
2022/12/23 00:38:15;;;;;;;3.87;1.30;;;12.00;99.90;;;;;;5006096;28;20486;-64
2022/12/23 00:43:26;;;;;;;4.30;1.50;;;12.00;99.90;;;;;;5011045;28;20681;-63
2022/12/23 00:45:52;;;;;;;3.30;1.40;;;12.00;99.90;;;;;;5010175;28;20883;-64
2022/12/23 00:51:02;;;;;;;2.40;1.40;;;12.10;99.90;;;;;;5011735;28;20496;-63
2022/12/23 00:53:27;;;;;;;5.20;1.40;;;12.10;99.90;;;;;;5011041;28;20442;-64
2022/12/23 00:55:53;;;;;;;3.67;1.60;;;12.20;99.90;;;;;;5009956;28;20201;-65
2022/12/23 00:58:20;;;;;;;6.90;1.50;;;12.20;99.90;;;;;;5013430;28;20183;-65
2022/12/23 01:06:15;;;;;;;2.00;1.43;;;12.30;99.90;;;;;;5001004;28;20473;-65
2022/12/23 01:08:41;;;;;;;3.77;1.60;;;12.40;99.90;;;;;;5012886;28;20831;-66
2022/12/23 01:11:10;;;;;;;1.83;1.13;;;12.30;99.90;;;;;;5012091;28;20195;-67
2022/12/23 01:13:36;;;;;;;2.70;1.23;;;12.40;99.90;;;;;;5009822;28;20176;-66
2022/12/23 01:16:09;;;;;;;3.50;1.40;;;12.40;99.90;;;;;;5010609;28;20463;-65
2022/12/23 01:18:36;;;;;;;4.93;1.43;;;12.40;99.90;;;;;;5013379;28;20436;-66
2022/12/23 01:21:07;;;;;;;2.27;1.20;;;12.50;99.90;;;;;;5009748;28;20617;-65
2022/12/23 01:23:34;;;;;;;2.17;1.97;;;12.60;99.90;;;;;;4999842;28;20455;-65
2022/12/23 01:26:02;;;;;;;2.70;1.30;;;12.60;99.90;;;;;;5006603;28;20998;-66
2022/12/23 01:28:29;;;;;;;2.83;1.30;;;12.60;99.90;;;;;;5023625;28;20431;-67
2022/12/23 01:30:55;;;;;;;1.90;1.30;;;12.60;99.90;;;;;;5008018;28;21344;-65
2022/12/23 01:33:21;;;;;;;3.87;1.50;;;12.60;99.90;;;;;;5012141;28;20436;-66
2022/12/23 01:35:47;;;;;;;2.43;1.17;;;12.70;99.90;;;;;;4999142;28;20208;-65
2022/12/23 01:38:13;;;;;;;1.90;1.20;;;12.70;99.90;;;;;;5004034;28;20434;-65
2022/12/23 01:40:41;;;;;;;2.87;1.40;;;12.70;99.90;;;;;;5006776;28;20840;-66
2022/12/23 01:43:15;;;;;;;2.13;1.20;;;12.70;99.90;;;;;;5009512;28;20447;-66
2022/12/23 01:45:40;;;;;;;1.70;1.10;;;12.70;99.90;;;;;;5013486;28;20455;-65
2022/12/23 01:48:21;;;;;;;2.10;1.30;;;12.70;99.90;;;;;;5005753;28;20450;-66
2022/12/23 01:50:54;;;;;;;2.97;2.53;;;12.70;99.90;;;;;;5013584;28;20638;-65
2022/12/23 01:53:31;;;;;;;2.00;1.13;;;12.70;99.90;;;;;;5006087;28;20924;-66
2022/12/23 01:56:15;;;;;;;2.37;1.30;;;12.80;99.90;;;;;;5013833;28;20490;-66
2022/12/23 01:58:49;;;;;;;2.00;1.30;;;12.80;99.90;;;;;;5011559;28;20517;-65
2022/12/23 02:04:06;;;;;;;2.03;1.00;;;12.80;99.90;;;;;;5018120;28;20513;-65
2022/12/23 02:09:29;;;;;;;2.03;1.23;;;12.80;99.90;;;;;;5010828;28;20478;-66
2022/12/23 02:12:32;;;;;;;2.50;2.23;;;12.90;99.90;;;;;;5018048;28;20902;-70
2022/12/23 02:18:26;;;;;;;1.67;1.07;;;12.90;99.90;;;;;;5012557;28;20536;-65
2022/12/23 02:21:10;;;;;;;2.30;1.27;;;12.90;99.90;;;;;;5019864;28;20431;-65
2022/12/23 02:23:48;;;;;;;1.63;1.10;;;12.90;99.90;;;;;;5012191;28;20436;-66
2022/12/23 02:26:54;;;;;;;1.70;1.13;;;12.90;99.90;;;;;;5013789;28;20560;-67
2022/12/23 02:29:53;;;;;;;2.23;1.20;;;13.00;99.90;;;;;;5015752;28;20431;-66
2022/12/23 02:32:30;;;;;;;1.63;1.17;;;13.00;99.90;;;;;;5016617;28;20479;-66
2022/12/23 02:35:11;;;;;;;4.87;1.47;;;13.10;99.90;;;;;;5017362;28;20447;-66
2022/12/23 02:37:54;;;;;;;2.13;1.30;;;13.10;99.90;;;;;;5017110;28;20437;-66
2022/12/23 02:40:46;;;;;;;1.50;1.10;;;13.00;99.90;;;;;;5013357;28;20435;-66
2022/12/23 02:43:23;;;;;;;1.70;1.20;;;13.10;99.90;;;;;;5008680;28;20447;-66
2022/12/23 02:45:59;;;;;;;1.90;1.13;;;13.10;99.90;;;;;;5018130;28;20516;-66
2022/12/23 02:48:34;;;;;;;1.80;1.10;;;13.10;99.90;;;;;;5018517;28;20436;-66
2022/12/23 02:51:01;;;;;;;2.87;1.20;;;13.10;99.90;;;;;;5022684;28;20470;-66
2022/12/23 02:53:36;;;;;;;1.97;1.23;;;13.10;99.90;;;;;;5017992;28;20435;-66
2022/12/23 02:56:05;;;;;;;3.13;2.10;;;13.20;99.90;;;;;;5016345;28;20511;-66
2022/12/23 02:58:36;;;;;;;5.00;1.20;;;13.10;99.90;;;;;;5017230;28;20542;-67
2022/12/23 03:01:03;;;;;;;1.50;1.00;;;13.20;99.90;;;;;;5022156;28;20432;-66
2022/12/23 03:03:30;;;;;;;3.83;1.50;;;13.20;99.90;;;;;;5020754;28;21039;-66
2022/12/23 03:05:56;;;;;;;3.50;1.20;;;13.20;99.90;;;;;;5018927;28;20463;-66
2022/12/23 03:08:26;;;;;;;1.60;1.10;;;13.20;99.90;;;;;;5015291;28;20570;-66
2022/12/23 03:11:07;;;;;;;2.33;1.10;;;13.20;99.90;;;;;;5015929;28;20230;-66
2022/12/23 03:14:04;;;;;;;2.90;1.03;;;13.10;99.90;;;;;;5008462;28;20460;-66
2022/12/23 03:17:10;;;;;;;1.60;1.00;;;13.20;99.90;;;;;;5012856;28;20933;-66
2022/12/23 03:19:48;;;;;;;1.93;1.30;;;13.20;99.90;;;;;;5018213;28;20421;-66
2022/12/23 03:22:42;;;;;;;2.40;1.40;;;13.20;99.90;;;;;;5015713;28;20519;-66
2022/12/23 03:25:25;;;;;;;3.73;1.20;;;13.20;99.90;;;;;;5012662;28;20953;-66
2022/12/23 03:28:07;;;;;;;3.80;1.17;;;13.20;99.90;;;;;;5016301;28;20516;-66
2022/12/23 03:30:36;;;;;;;2.47;1.27;;;13.20;99.90;;;;;;5017489;28;21007;-66
2022/12/23 03:33:23;;;;;;;1.60;1.10;;;13.20;99.90;;;;;;5015714;28;21147;-67
2022/12/23 03:35:54;;;;;;;1.50;1.07;;;13.10;99.90;;;;;;5015790;28;20462;-66
2022/12/23 03:38:21;;;;;;;1.50;1.20;;;13.20;99.90;;;;;;5012976;28;20439;-66
2022/12/23 03:40:53;;;;;;;1.40;1.00;;;13.20;99.90;;;;;;5018829;28;20444;-65
2022/12/23 03:43:53;;;;;;;2.47;1.03;;;13.20;99.90;;;;;;5017797;28;20846;-65
2022/12/23 03:46:26;;;;;;;1.83;1.20;;;13.20;99.90;;;;;;4997736;28;20486;-65
2022/12/23 03:48:57;;;;;;;2.30;1.40;;;13.30;99.90;;;;;;5012474;28;20833;-66
2022/12/23 03:51:28;;;;;;;2.77;1.20;;;13.30;99.90;;;;;;5022023;28;20575;-66
2022/12/23 03:54:09;;;;;;;2.00;1.03;;;13.40;99.90;;;;;;5007474;28;20443;-65
2022/12/23 03:56:39;;;;;;;1.63;1.10;;;13.30;99.90;;;;;;5012980;28;20855;-65
2022/12/23 03:59:25;;;;;;;2.47;1.13;;;13.40;99.90;;;;;;5016750;28;20427;-65
2022/12/23 04:02:25;;;;;;;5.20;1.10;;;13.40;99.90;;;;;;5012907;28;20454;-66
2022/12/23 04:05:24;;;;;;;1.63;1.03;;;13.30;99.90;;;;;;5014770;28;20439;-65
2022/12/23 04:08:14;;;;;;;1.60;1.20;;;13.40;99.90;;;;;;5014539;28;20463;-65
2022/12/23 04:10:40;;;;;;;1.80;1.10;;;13.40;99.90;;;;;;5013041;28;20806;-66
2022/12/23 04:13:07;;;;;;;5.13;1.20;;;13.40;99.90;;;;;;5016564;28;20487;-65
2022/12/23 04:15:32;;;;;;;2.37;1.20;;;13.40;99.90;;;;;;5018831;28;20210;-65
2022/12/23 04:17:58;;;;;;;1.60;1.00;;;13.50;99.90;;;;;;5013097;28;20447;-65
2022/12/23 04:20:24;;;;;;;1.70;1.20;;;13.40;99.90;;;;;;5012289;28;20180;-66
2022/12/23 04:22:50;;;;;;;3.43;1.10;;;13.40;99.90;;;;;;5011844;28;20196;-65
2022/12/23 04:25:16;;;;;;;2.20;1.40;;;13.50;99.90;;;;;;5010783;28;20439;-65
2022/12/23 04:27:42;;;;;;;1.50;1.10;;;13.60;99.90;;;;;;5011839;28;20776;-65
2022/12/23 04:30:09;;;;;;;1.70;1.10;;;13.60;99.90;;;;;;5016397;28;20463;-65
2022/12/23 04:32:35;;;;;;;1.83;1.20;;;13.60;99.90;;;;;;5017099;28;20250;-65
2022/12/23 04:35:01;;;;;;;3.10;1.20;;;13.60;99.90;;;;;;5017284;28;20968;-65
2022/12/23 04:37:27;;;;;;;3.73;1.13;;;13.60;99.90;;;;;;5011659;28;20474;-65
2022/12/23 04:39:52;;;;;;;1.67;1.00;;;13.60;99.90;;;;;;5012222;28;20189;-65
2022/12/23 04:42:18;;;;;;;1.40;1.10;;;13.60;99.90;;;;;;5014978;28;20185;-65
2022/12/23 04:44:43;;;;;;;2.10;1.50;;;13.70;99.90;;;;;;5015572;28;20185;-65
2022/12/23 04:47:09;;;;;;;1.80;1.20;;;13.70;99.90;;;;;;5016990;28;20631;-65
2022/12/23 04:49:34;;;;;;;2.67;1.10;;;13.70;99.90;;;;;;5012348;28;20172;-66
2022/12/23 04:52:00;;;;;;;1.70;1.17;;;13.70;99.90;;;;;;5011832;28;20223;-65
2022/12/23 04:54:25;;;;;;;1.40;1.00;;;13.70;99.90;;;;;;5011736;28;20279;-66
2022/12/23 04:56:51;;;;;;;1.90;1.20;;;13.60;99.90;;;;;;5014218;28;20235;-66
2022/12/23 04:59:17;;;;;;;1.50;1.00;;;13.60;99.90;;;;;;5013888;28;20538;-66
2022/12/23 05:01:42;;;;;;;2.00;1.10;;;13.60;99.90;;;;;;5018535;28;20218;-66
2022/12/23 05:04:08;;;;;;;4.27;1.17;;;13.60;99.90;;;;;;5012650;28;20275;-66
2022/12/23 05:06:35;;;;;;;1.70;1.20;;;13.70;99.90;;;;;;5012455;28;20246;-65
2022/12/23 05:09:01;;;;;;;1.53;1.10;;;13.70;99.90;;;;;;5012185;28;21053;-65
2022/12/23 05:11:26;;;;;;;2.60;1.10;;;13.70;99.90;;;;;;5017113;28;20550;-66
2022/12/23 05:13:52;;;;;;;2.37;1.20;;;13.80;99.90;;;;;;5018069;28;20578;-66
2022/12/23 05:16:18;;;;;;;1.70;1.20;;;13.80;99.90;;;;;;5018705;28;20208;-66
2022/12/23 05:18:43;;;;;;;1.73;1.17;;;13.80;99.90;;;;;;5022338;28;20187;-65
2022/12/23 05:21:09;;;;;;;1.77;1.20;;;13.80;99.90;;;;;;5017012;28;20188;-66
2022/12/23 05:23:34;;;;;;;2.00;1.13;;;13.80;99.90;;;;;;5017027;28;20176;-66
2022/12/23 05:26:00;;;;;;;1.73;1.37;;;13.80;99.90;;;;;;5017302;28;20277;-66
2022/12/23 05:28:26;;;;;;;1.80;1.13;;;13.90;99.90;;;;;;5020902;28;20205;-66
2022/12/23 05:30:58;;;;;;;1.60;1.30;;;13.90;99.90;;;;;;5018545;28;20188;-66
2022/12/23 05:33:24;;;;;;;1.60;1.10;;;13.80;99.90;;;;;;5017845;28;20571;-66
2022/12/23 05:35:49;;;;;;;1.80;1.10;;;13.80;99.90;;;;;;5020491;28;20463;-66
2022/12/23 05:38:15;;;;;;;1.60;1.10;;;13.90;99.90;;;;;;5014478;28;20193;-66
2022/12/23 05:40:40;;;;;;;1.60;1.10;;;13.80;99.90;;;;;;5013734;28;21375;-66
2022/12/23 05:43:06;;;;;;;1.43;1.00;;;13.80;99.90;;;;;;5018016;28;20819;-65
2022/12/23 05:45:34;;;;;;;2.40;1.20;;;13.80;99.90;;;;;;5015157;28;21151;-66
2022/12/23 05:48:00;;;;;;;1.60;1.10;;;13.80;99.90;;;;;;5023349;28;20184;-66
2022/12/23 05:50:26;;;;;;;1.60;1.20;;;13.80;99.90;;;;;;5013495;28;20975;-66
2022/12/23 05:52:51;;;;;;;1.60;1.10;;;13.80;99.90;;;;;;5018850;28;20246;-66
2022/12/23 05:55:17;;;;;;;1.40;1.00;;;13.80;99.90;;;;;;5030681;28;20192;-66
2022/12/23 05:57:42;;;;;;;1.90;1.20;;;13.80;99.90;;;;;;5012812;28;20188;-66
2022/12/23 06:00:08;;;;;;;1.60;1.00;;;13.70;99.90;;;;;;5017248;28;20185;-66
2022/12/23 06:02:34;;;;;;;1.70;1.30;;;13.80;99.90;;;;;;5020465;28;20189;-66
2022/12/23 06:04:59;;;;;;;2.10;1.20;;;13.80;99.90;;;;;;5010168;28;20451;-66
2022/12/23 06:07:25;;;;;;;5.07;1.50;;;13.80;99.90;;;;;;5014600;28;20449;-66
2022/12/23 06:09:50;;;;;;;2.00;1.20;;;13.90;99.90;;;;;;5013878;28;20200;-66
2022/12/23 06:12:16;;;;;;;1.63;1.27;;;13.90;99.90;;;;;;5017081;28;20201;-66
2022/12/23 06:14:42;;;;;;;1.93;1.10;;;13.90;99.90;;;;;;5018371;28;20194;-66
2022/12/23 06:17:07;;;;;;;2.50;1.80;;;13.90;99.90;;;;;;5017074;28;20215;-65
2022/12/23 06:19:33;;;;;;;2.20;1.50;;;13.90;99.90;;;;;;5014829;28;20197;-65
2022/12/23 06:21:58;;;;;;;2.40;1.50;;;13.80;99.90;;;;;;5017390;28;20342;-66
2022/12/23 06:24:24;;;;;;;1.90;1.30;;;13.80;99.90;;;;;;5015460;28;20562;-66
2022/12/23 06:26:49;;;;;;;2.13;1.40;;;13.90;99.90;;;;;;5014767;28;20212;-66
2022/12/23 06:29:15;;;;;;;2.27;1.50;;;13.90;99.90;;;;;;5013109;28;20263;-66
2022/12/23 06:31:40;;;;;;;3.13;1.80;;;13.90;99.90;;;;;;5014382;28;20228;-66
2022/12/23 06:34:06;;;;;;;2.63;1.40;;;13.90;99.90;;;;;;5016386;28;20642;-66
2022/12/23 06:36:31;;;;;;;2.73;1.60;;;13.90;99.90;;;;;;5015843;28;20584;-66
2022/12/23 06:38:57;;;;;;;2.03;1.27;;;13.90;99.90;;;;;;5013503;28;20297;-66
2022/12/23 06:41:22;;;;;;;3.00;1.70;;;14.00;99.90;;;;;;5013595;28;20204;-66
2022/12/23 06:43:48;;;;;;;2.60;1.57;;;13.90;99.90;;;;;;5015753;28;20187;-66
2022/12/23 06:46:13;;;;;;;3.03;1.40;;;13.90;99.90;;;;;;5016762;28;20204;-66
2022/12/23 06:48:39;;;;;;;2.43;1.90;;;13.90;99.90;;;;;;5012185;28;20242;-66
2022/12/23 06:51:04;;;;;;;2.40;1.60;;;13.90;99.90;;;;;;5014618;28;20204;-66
2022/12/23 06:53:30;;;;;;;2.40;1.70;;;13.90;99.90;;;;;;5016439;28;20215;-66
2022/12/23 06:56:00;;;;;;;3.43;1.73;;;13.90;99.90;;;;;;5017046;28;20203;-66
2022/12/23 06:58:25;;;;;;;3.90;1.60;;;13.90;99.90;;;;;;5019966;28;20752;-66
2022/12/23 07:00:51;;;;;;;2.00;1.50;;;13.90;99.90;;;;;;5018920;28;20521;-66
2022/12/23 07:03:17;;;;;;;3.20;2.00;;;13.90;99.90;;;;;;5016007;28;20189;-65
2022/12/23 07:05:49;;;;;;;3.90;1.70;;;13.90;99.90;;;;;;5016851;28;20203;-65
2022/12/23 07:08:16;;;;;;;3.30;1.77;;;13.80;99.90;;;;;;5015120;28;20184;-66
2022/12/23 07:10:41;;;;;;;2.00;1.60;;;13.80;99.90;;;;;;5019902;28;20447;-66
2022/12/23 07:13:07;;;;;;;3.40;1.77;;;13.80;99.90;;;;;;5015035;28;20475;-66
2022/12/23 07:15:33;;;;;;;4.30;1.80;;;13.80;99.90;;;;;;5012288;28;20346;-66
2022/12/23 07:17:58;;;;;;;2.00;1.60;;;13.90;99.90;;;;;;5009308;28;20263;-66
2022/12/23 07:20:24;;;;;;;2.00;1.40;;;13.90;99.90;;;;;;5018366;28;20183;-66
2022/12/23 07:22:49;;;;;;;2.73;1.80;;;13.80;99.90;;;;;;5019662;28;20188;-66
2022/12/23 07:25:15;;;;;;;1.93;1.43;;;13.80;99.90;;;;;;5014558;28;20546;-66
2022/12/23 07:27:41;;;;;;;1.70;1.40;;;13.90;99.90;;;;;;5017758;28;20191;-66
2022/12/23 07:30:07;;;;;;;2.53;1.40;;;13.70;99.90;;;;;;5018164;28;20454;-66
2022/12/23 07:32:33;;;;;;;2.10;1.50;;;13.70;99.90;;;;;;5011008;28;21029;-66
2022/12/23 07:34:58;;;;;;;2.40;1.50;;;13.70;99.90;;;;;;5019099;28;20443;-65
2022/12/23 07:37:24;;;;;;;3.07;1.50;;;13.70;99.90;;;;;;5011675;28;20204;-66
2022/12/23 07:39:50;;;;;;;2.20;1.77;;;13.60;99.90;;;;;;5016374;28;20191;-66
2022/12/23 07:42:15;;;;;;;3.10;1.60;;;13.60;99.90;;;;;;5015872;28;20187;-66
2022/12/23 07:44:41;;;;;;;3.90;1.80;;;13.50;99.90;;;;;;5010754;28;20226;-67
2022/12/23 07:47:06;;;;;;;2.57;1.60;;;13.50;99.90;;;;;;5010043;28;20595;-66
2022/12/23 07:49:32;;;;;;;2.47;1.87;;;13.50;99.90;;;;;;5013021;28;20191;-66
2022/12/23 07:51:57;;;;;;;3.50;1.70;;;13.50;99.90;;;;;;5012813;28;20328;-67
2022/12/23 07:54:23;;;;;;;4.40;1.90;;;13.50;99.90;;;;;;5012387;28;20193;-67
2022/12/23 07:56:49;;;;;;;2.00;1.67;;;13.40;99.90;;;;;;5018327;28;20200;-67
2022/12/23 07:59:14;;;;;;;2.57;1.63;;;13.40;99.90;;;;;;5012773;28;20195;-67
2022/12/23 08:01:40;;;;;;;2.83;1.80;;;13.40;99.90;;;;;;5020414;28;20730;-67
2022/12/23 08:04:05;;;;;;;2.17;1.80;;;13.40;99.90;;;;;;5014805;28;20196;-66
2022/12/23 08:06:35;;;;;;;2.53;2.33;;;13.40;99.90;;;;;;5008466;28;20208;-67
2022/12/23 08:09:00;;;;;;;2.83;1.67;;;13.30;99.90;;;;;;5015695;28;20216;-67
2022/12/23 08:11:26;;;;;;;2.23;1.50;;;13.30;99.90;;;;;;5015680;28;20814;-66
2022/12/23 08:13:51;;;;;;;2.93;1.67;;;13.30;99.90;;;;;;5013721;28;20189;-66
2022/12/23 08:16:17;;;;;;;3.80;2.03;;;13.40;99.90;;;;;;5015671;28;20279;-66
2022/12/23 08:18:43;;;;;;;2.10;1.70;;;13.40;99.90;;;;;;5016197;28;20191;-66
2022/12/23 08:21:14;;;;;;;2.20;1.90;;;13.40;99.90;;;;;;5012591;28;20435;-66
2022/12/23 08:23:40;;;;;;;2.63;1.60;;;13.40;99.90;;;;;;5016235;28;20264;-66
2022/12/23 08:26:19;;;;;;;2.03;1.40;;;13.30;99.90;;;;;;5015927;28;20463;-66
2022/12/23 08:28:45;;;;;;;3.97;1.60;;;13.30;99.90;;;;;;5012247;28;20441;-66
2022/12/23 08:31:14;;;;;;;3.10;1.43;;;13.30;99.90;;;;;;5008633;28;20945;-67
2022/12/23 08:33:41;;;;;;;6.17;1.63;;;13.40;99.90;;;;;;5013838;28;20176;-67
2022/12/23 08:36:09;;;;;;;2.13;1.47;;;13.30;99.90;;;;;;5013075;28;20632;-67
2022/12/23 08:38:35;;;;;;;2.30;1.40;;;13.40;99.90;;;;;;5008127;28;20463;-66
2022/12/23 08:41:00;;;;;;;1.90;1.37;;;13.40;99.90;;;;;;5013760;28;21033;-67
2022/12/23 08:43:26;;;;;;;2.77;1.50;;;13.40;99.90;;;;;;5015292;28;20435;-67
2022/12/23 08:45:52;;;;;;;3.40;1.63;;;13.40;99.90;;;;;;5015908;28;20204;-67
2022/12/23 08:48:17;;;;;;;1.90;1.50;;;13.40;99.90;;;;;;5010631;28;20780;-67
2022/12/23 08:50:45;;;;;;;2.80;1.50;;;13.40;99.90;;;;;;5013003;28;20194;-67
2022/12/23 08:53:12;;;;;;;3.40;1.57;;;13.30;99.90;;;;;;5015272;28;20274;-66
2022/12/23 08:55:43;;;;;;;2.17;1.50;;;13.40;99.90;;;;;;5013396;28;20528;-67
2022/12/23 08:58:11;;;;;;;1.97;1.40;;;13.40;99.90;;;;;;5014762;28;20419;-67
2022/12/23 09:00:37;;;;;;;2.13;1.57;;;13.40;99.90;;;;;;5016192;28;20518;-67
2022/12/23 09:03:03;;;;;;;1.80;1.40;;;13.50;99.90;;;;;;5016188;28;20455;-67
2022/12/23 09:05:28;;;;;;;1.70;1.20;;;13.40;99.90;;;;;;5017118;28;20466;-66
2022/12/23 09:07:54;;;;;;;3.03;1.67;;;13.50;99.90;;;;;;5017696;28;20430;-67
2022/12/23 09:10:20;;;;;;;2.60;1.53;;;13.50;99.90;;;;;;5013692;28;20177;-67
2022/12/23 09:12:46;;;;;;;2.00;1.50;;;13.50;99.90;;;;;;5017017;28;20235;-67
2022/12/23 09:15:11;;;;;;;3.53;1.83;;;13.60;99.90;;;;;;5015629;28;22908;-67
2022/12/23 09:17:37;;;;;;;2.10;1.70;;;13.60;99.90;;;;;;5016458;28;20215;-66
2022/12/23 09:20:03;;;;;;;2.27;1.70;;;13.60;99.90;;;;;;5018954;28;20661;-66
2022/12/23 09:22:31;;;;;;;2.30;2.10;;;13.50;99.90;;;;;;5017357;28;20192;-66
2022/12/23 09:24:57;;;;;;;1.73;1.33;;;13.50;99.90;;;;;;5015034;28;21008;-66
2022/12/23 09:27:22;;;;;;;1.90;1.63;;;13.60;99.90;;;;;;5012276;28;20467;-66
2022/12/23 09:29:48;;;;;;;2.20;1.97;;;13.50;99.90;;;;;;5010841;28;20687;-67
2022/12/23 09:32:13;;;;;;;2.40;1.87;;;13.50;99.90;;;;;;5010746;28;20729;-66
2022/12/23 09:34:39;;;;;;;1.90;1.60;;;13.50;99.90;;;;;;5008230;28;21368;-66
2022/12/23 09:37:04;;;;;;;2.27;1.93;;;13.60;99.90;;;;;;5007366;28;20204;-66
2022/12/23 09:39:30;;;;;;;3.30;2.07;;;13.50;99.90;;;;;;5003647;28;20181;-66
2022/12/23 09:42:12;;;;;;;2.20;1.87;;;13.60;99.90;;;;;;5011770;28;20812;-66
2022/12/23 09:45:03;;;;;;;2.40;2.10;;;13.60;99.90;;;;;;5003111;28;20678;-66
2022/12/23 09:47:32;;;;;;;2.90;2.10;;;13.60;99.90;;;;;;5005760;28;20840;-65
2022/12/23 09:50:09;;;;;;;2.53;1.90;;;13.70;99.90;;;;;;5009360;28;20457;-66
2022/12/23 09:53:04;;;;;;;5.20;2.00;;;13.70;99.90;;;;;;5005256;28;20471;-66
2022/12/23 09:55:49;;;;;;;4.47;2.03;;;13.70;99.90;;;;;;5008748;28;20466;-66
2022/12/23 09:58:41;;;;;;;2.70;1.83;;;13.70;99.90;;;;;;5007722;28;20518;-65
2022/12/23 10:01:21;;;;;;;2.53;2.03;;;13.60;99.90;;;;;;5012394;28;20555;-65
2022/12/23 10:04:16;;;;;;;2.70;1.90;;;13.70;99.90;;;;;;5016341;28;20438;-65
2022/12/23 10:06:46;;;;;;;2.70;2.10;;;13.70;99.90;;;;;;5010184;28;20538;-65
2022/12/23 10:09:13;;;;;;;3.47;2.10;;;13.70;99.90;;;;;;5010319;28;20434;-66
2022/12/23 10:11:42;;;;;;;3.93;1.93;;;13.70;99.90;;;;;;5017955;28;20999;-66
2022/12/23 10:14:27;;;;;;;2.60;2.07;;;13.70;99.90;;;;;;5016696;28;21072;-65
2022/12/23 10:17:00;;;;;;;2.30;2.00;;;13.80;99.90;;;;;;5017278;28;20878;-65
2022/12/23 10:19:44;;;;;;;3.00;2.10;;;13.90;99.90;;;;;;5016087;28;20436;-65
2022/12/23 10:22:14;;;;;;;4.13;1.90;;;13.80;99.90;;;;;;5009030;28;22102;-65
2022/12/23 10:24:43;;;;;;;2.40;1.67;;;13.80;99.90;;;;;;5017639;28;20956;-65
2022/12/23 10:27:41;;;;;;;2.60;2.10;;;13.90;99.90;;;;;;5015321;28;20468;-64
2022/12/23 10:30:10;;;;;;;2.33;1.80;;;13.90;99.90;;;;;;5012353;28;20605;-65
2022/12/23 10:33:00;;;;;;;3.10;1.77;;;14.00;99.90;;;;;;5010802;28;20474;-65
2022/12/23 10:35:43;;;;;;;3.00;1.90;;;13.90;99.90;;;;;;5018811;28;20436;-65
2022/12/23 10:38:26;;;;;;;2.50;1.57;;;14.00;99.90;;;;;;5014849;28;20944;-66
2022/12/23 10:41:10;;;;;;;2.60;1.90;;;13.90;99.90;;;;;;5007446;28;20430;-65
2022/12/23 10:43:54;;;;;;;2.30;2.00;;;13.90;99.90;;;;;;5022306;28;20431;-65
2022/12/23 10:46:45;;;;;;;5.73;3.10;;;13.90;99.90;;;;;;5013815;28;20546;-65
2022/12/23 10:49:33;;;;;;;6.10;2.00;;;14.00;99.90;;;;;;5002159;28;20454;-64
2022/12/23 10:52:05;;;;;;;2.20;1.60;;;13.90;99.90;;;;;;5017718;28;20573;-64
2022/12/23 10:54:33;;;;;;;2.77;2.00;;;13.90;99.90;;;;;;5008058;28;21377;-64
2022/12/23 10:56:59;;;;;;;3.53;2.10;;;13.80;99.90;;;;;;5009841;28;20861;-65
2022/12/23 10:59:28;;;;;;;2.20;1.73;;;14.00;99.90;;;;;;5012543;28;20473;-66
2022/12/23 11:02:11;;;;;;;2.87;2.00;;;14.00;99.90;;;;;;5015146;28;21218;-66
2022/12/23 11:04:45;;;;;;;4.30;2.13;;;14.10;99.90;;;;;;5012617;28;20449;-65
2022/12/23 11:07:19;;;;;;;3.30;2.00;;;14.20;99.90;;;;;;5017640;28;20443;-65
2022/12/23 11:10:01;;;;;;;4.53;2.17;;;14.10;99.90;;;;;;5019190;28;20448;-64
2022/12/23 11:12:48;;;;;;;2.40;1.80;;;14.10;99.90;;;;;;5013004;28;20474;-64
2022/12/23 11:15:25;;;;;;;2.47;1.60;;;14.20;99.90;;;;;;5012814;28;20433;-65
2022/12/23 11:18:18;;;;;;;2.83;2.00;;;14.20;99.90;;;;;;5013860;28;20431;-64
2022/12/23 11:20:59;;;;;;;2.73;2.27;;;14.20;99.90;;;;;;5012995;28;20443;-64
2022/12/23 11:23:26;;;;;;;2.30;1.50;;;14.10;99.90;;;;;;5018064;28;20441;-65
2022/12/23 11:26:05;;;;;;;2.20;1.77;;;14.10;99.90;;;;;;5015699;28;20515;-65
2022/12/23 11:28:32;;;;;;;3.90;1.70;;;14.10;99.90;;;;;;5014398;28;20443;-64
2022/12/23 11:31:06;;;;;;;5.30;1.77;;;14.10;99.90;;;;;;5015117;28;20451;-65
2022/12/23 11:33:38;;;;;;;2.50;1.80;;;14.00;99.90;;;;;;5012643;28;20470;-64
2022/12/23 11:36:16;;;;;;;2.10;1.70;;;14.10;99.90;;;;;;5017770;28;20451;-64
2022/12/23 11:38:47;;;;;;;4.67;2.00;;;14.00;99.90;;;;;;5013289;28;20523;-64
2022/12/23 11:41:19;;;;;;;2.40;1.40;;;14.00;99.90;;;;;;5019223;28;20423;-65
2022/12/23 11:43:56;;;;;;;2.97;1.77;;;14.00;99.90;;;;;;5013828;28;20435;-65
2022/12/23 11:46:31;;;;;;;2.63;1.60;;;14.00;99.90;;;;;;5018337;28;20536;-66
2022/12/23 11:49:20;;;;;;;3.63;1.90;;;14.10;99.90;;;;;;5011666;28;20488;-66
2022/12/23 11:52:03;;;;;;;4.10;2.70;;;14.20;99.90;;;;;;4999480;28;20481;-65
2022/12/23 11:54:30;;;;;;;3.60;1.90;;;14.20;99.90;;;;;;5000824;28;20447;-64
2022/12/23 11:56:56;;;;;;;4.13;2.10;;;14.20;99.90;;;;;;5015253;28;21045;-64
2022/12/23 11:59:39;;;;;;;3.80;2.03;;;14.30;99.90;;;;;;5014414;28;21300;-64
2022/12/23 12:02:33;;;;;;;2.73;1.90;;;14.30;99.90;;;;;;5014699;28;20443;-63
2022/12/23 12:05:15;;;;;;;4.90;2.33;;;14.30;99.90;;;;;;5002275;28;20467;-63
2022/12/23 12:07:43;;;;;;;3.63;2.10;;;14.30;99.90;;;;;;5011601;28;20435;-63
2022/12/23 12:10:16;;;;;;;3.10;2.53;;;14.30;99.90;;;;;;5010829;28;20435;-63
2022/12/23 12:12:42;;;;;;;3.27;2.23;;;14.40;99.90;;;;;;5010553;28;20477;-63
2022/12/23 12:15:41;;;;;;;2.60;2.17;;;14.40;99.90;;;;;;5012498;28;20435;-63
2022/12/23 12:18:12;;;;;;;4.03;2.27;;;14.30;99.90;;;;;;5009805;28;20177;-64
2022/12/23 12:20:48;;;;;;;3.33;1.90;;;14.40;99.90;;;;;;5014673;28;20518;-64
2022/12/23 12:23:19;;;;;;;2.87;1.60;;;14.30;99.90;;;;;;5007275;28;20438;-64
2022/12/23 12:25:50;;;;;;;2.70;1.80;;;14.20;99.90;;;;;;5008788;28;20853;-64
2022/12/23 12:28:21;;;;;;;2.50;1.80;;;14.20;99.90;;;;;;5010298;28;21225;-64
2022/12/23 12:30:52;;;;;;;2.77;1.80;;;14.20;99.90;;;;;;5005506;28;20534;-64
2022/12/23 12:33:22;;;;;;;4.43;1.90;;;14.20;99.90;;;;;;5013571;28;20467;-64
2022/12/23 12:35:51;;;;;;;3.10;1.80;;;14.20;99.90;;;;;;5012968;28;20460;-64
2022/12/23 12:38:24;;;;;;;2.20;1.70;;;14.10;99.90;;;;;;5007565;28;20447;-64
2022/12/23 12:41:09;;;;;;;3.20;1.83;;;14.00;99.90;;;;;;5012893;28;20919;-64
2022/12/23 12:43:54;;;;;;;2.40;1.80;;;14.00;99.90;;;;;;5014770;28;21290;-64
2022/12/23 12:46:35;;;;;;;2.20;1.80;;;14.10;99.90;;;;;;5015602;28;20501;-65
2022/12/23 12:49:18;;;;;;;2.83;2.00;;;14.20;99.90;;;;;;5016001;28;20481;-64
2022/12/23 12:51:50;;;;;;;2.83;1.70;;;14.10;99.90;;;;;;5015537;28;20475;-64
2022/12/23 12:54:34;;;;;;;3.83;1.67;;;14.20;99.90;;;;;;5018306;28;20419;-64
2022/12/23 12:57:01;;;;;;;2.33;1.47;;;14.10;99.90;;;;;;5014797;28;20902;-65
2022/12/23 12:59:37;;;;;;;2.03;1.73;;;14.10;99.90;;;;;;5016490;28;20514;-64
2022/12/23 13:02:21;;;;;;;2.00;1.60;;;14.10;99.90;;;;;;5010519;28;20443;-64
2022/12/23 13:05:17;;;;;;;3.63;2.03;;;14.10;99.90;;;;;;5011354;28;20523;-64
2022/12/23 13:08:13;;;;;;;5.00;2.00;;;14.10;99.90;;;;;;5009417;28;20442;-65
2022/12/23 13:10:57;;;;;;;2.50;1.80;;;14.20;99.90;;;;;;5026377;28;20431;-65
2022/12/23 13:14:02;;;;;;;4.30;1.70;;;14.10;99.90;;;;;;5013244;28;20662;-65
2022/12/23 13:16:55;;;;;;;2.37;1.80;;;14.20;99.90;;;;;;5012890;28;20446;-63
2022/12/23 13:19:46;;;;;;;1.90;1.50;;;14.20;99.90;;;;;;5015686;28;20435;-64
2022/12/23 13:22:16;;;;;;;2.10;1.70;;;14.20;99.90;;;;;;5013239;28;20439;-64
2022/12/23 13:24:42;;;;;;;3.30;1.80;;;14.20;99.90;;;;;;5004617;28;20449;-64
2022/12/23 13:27:11;;;;;;;2.80;1.70;;;14.20;99.90;;;;;;5009406;28;21470;-64
2022/12/23 13:30:12;;;;;;;3.20;1.73;;;14.20;99.90;;;;;;5007397;28;20534;-63
2022/12/23 13:32:47;;;;;;;2.07;1.60;;;14.30;99.90;;;;;;5015645;28;20470;-64
2022/12/23 13:35:45;;;;;;;4.00;1.43;;;14.30;99.90;;;;;;5015812;28;20496;-63
2022/12/23 13:38:36;;;;;;;1.83;1.30;;;14.40;99.90;;;;;;5011368;28;20800;-64